Time;durP1;ratioP1;P1;durP2;ratioP2;P2;SDS_P1;SDS_P2;PMS_P1;PMS_P2;Temp;Humidity;BMP_temperature;BMP_pressure;BME280_temperature;BME280_humidity;BME280_pressure;Samples;Min_cycle;Max_cycle;Signal;HPM_P1;HPM_P2
2022/12/10 00:02:08;;;;;;;95.43;30.35;;;;;;;;;;5098105;27;20038;-84
2022/12/10 00:04:34;;;;;;;90.38;30.17;;;;;;;;;;5098004;27;20120;-83
2022/12/10 00:07:00;;;;;;;88.38;29.05;;;;;;;;;;5097935;27;20023;-84
2022/12/10 00:09:26;;;;;;;97.00;30.80;;;;;;;;;;5114905;27;20081;-84
2022/12/10 00:11:52;;;;;;;85.90;30.33;;;;;;;;;;5114786;27;20028;-84
2022/12/10 00:14:18;;;;;;;88.57;28.90;;;;;;;;;;5097761;27;20031;-83
2022/12/10 00:16:44;;;;;;;89.50;30.98;;;;;;;;;;5097772;28;20443;-83
2022/12/10 00:19:10;;;;;;;91.35;29.27;;;;;;;;;;5114724;27;20102;-84
2022/12/10 00:21:37;;;;;;;95.07;29.65;;;;;;;;;;5133012;27;20057;-84
2022/12/10 00:24:04;;;;;;;93.75;30.13;;;;;;;;;;5133042;28;20380;-84
2022/12/10 00:26:31;;;;;;;80.78;28.80;;;;;;;;;;5095786;28;20053;-83
2022/12/10 00:28:58;;;;;;;95.70;29.13;;;;;;;;;;5112420;28;20024;-84
2022/12/10 00:31:25;;;;;;;90.47;29.50;;;;;;;;;;5114508;28;20126;-84
2022/12/10 00:33:53;;;;;;;84.47;27.95;;;;;;;;;;5098129;28;20107;-84
2022/12/10 00:36:23;;;;;;;78.25;26.95;;;;;;;;;;5125773;27;20023;-84
2022/12/10 00:38:50;;;;;;;85.00;27.48;;;;;;;;;;5137102;27;20026;-84
2022/12/10 00:41:16;;;;;;;85.40;28.38;;;;;;;;;;5131421;27;20032;-84
2022/12/10 00:43:43;;;;;;;82.60;27.75;;;;;;;;;;5108925;27;20110;-84
2022/12/10 00:46:09;;;;;;;86.63;28.40;;;;;;;;;;5118389;27;20038;-83
2022/12/10 00:48:35;;;;;;;84.13;28.80;;;;;;;;;;5135921;27;20495;-83
2022/12/10 00:51:03;;;;;;;88.47;28.17;;;;;;;;;;5101342;27;20035;-83
2022/12/10 00:53:31;;;;;;;78.18;28.58;;;;;;;;;;5118196;27;20102;-84
2022/12/10 00:55:58;;;;;;;74.95;27.45;;;;;;;;;;5118081;27;20039;-84
2022/12/10 00:58:24;;;;;;;89.55;29.55;;;;;;;;;;5136608;27;20023;-83
2022/12/10 01:00:50;;;;;;;83.93;29.70;;;;;;;;;;5117180;27;20121;-84
2022/12/10 01:03:16;;;;;;;88.30;29.92;;;;;;;;;;5101141;27;20023;-84
2022/12/10 01:05:42;;;;;;;95.68;29.83;;;;;;;;;;5118003;27;20088;-83
2022/12/10 01:08:08;;;;;;;83.30;29.65;;;;;;;;;;5101092;27;20416;-84
2022/12/10 01:10:34;;;;;;;84.53;27.65;;;;;;;;;;5119317;27;20027;-84
2022/12/10 01:13:01;;;;;;;79.50;28.25;;;;;;;;;;5116862;27;20019;-84
2022/12/10 01:15:27;;;;;;;86.75;31.52;;;;;;;;;;5116610;27;20027;-83
2022/12/10 01:17:53;;;;;;;94.32;32.38;;;;;;;;;;5116822;27;20495;-84
2022/12/10 01:20:19;;;;;;;99.00;32.85;;;;;;;;;;5116880;27;20016;-84
2022/12/10 01:22:45;;;;;;;92.88;31.90;;;;;;;;;;5116714;27;20120;-84
2022/12/10 01:25:11;;;;;;;93.13;30.70;;;;;;;;;;5113175;28;20059;-84
2022/12/10 01:27:37;;;;;;;90.30;30.63;;;;;;;;;;5096190;28;20023;-84
2022/12/10 01:30:03;;;;;;;86.55;29.65;;;;;;;;;;5096046;28;20034;-84
2022/12/10 01:32:29;;;;;;;89.80;30.95;;;;;;;;;;5096178;28;20156;-84
2022/12/10 01:34:55;;;;;;;91.72;31.23;;;;;;;;;;5096243;28;20015;-84
2022/12/10 01:37:21;;;;;;;93.38;31.02;;;;;;;;;;5099436;27;20030;-83
2022/12/10 01:39:47;;;;;;;94.25;30.90;;;;;;;;;;5099505;27;20038;-83
2022/12/10 01:42:14;;;;;;;91.47;33.17;;;;;;;;;;5119386;27;20476;-83
2022/12/10 01:44:43;;;;;;;100.45;35.33;;;;;;;;;;5128610;27;20488;-84
2022/12/10 01:47:09;;;;;;;94.07;33.60;;;;;;;;;;5096948;28;20081;-84
2022/12/10 01:49:37;;;;;;;105.40;35.58;;;;;;;;;;5096897;28;20055;-84
2022/12/10 01:52:05;;;;;;;94.25;33.95;;;;;;;;;;5096661;28;20050;-83
2022/12/10 01:54:34;;;;;;;91.43;31.73;;;;;;;;;;5115054;28;20028;-84
2022/12/10 01:57:01;;;;;;;85.70;30.05;;;;;;;;;;5096873;28;20517;-84
2022/12/10 01:59:28;;;;;;;90.15;29.83;;;;;;;;;;5096794;28;20027;-83
2022/12/10 02:01:54;;;;;;;84.80;29.67;;;;;;;;;;5079799;28;20117;-83
2022/12/10 02:04:25;;;;;;;84.75;30.00;;;;;;;;;;5095897;28;20549;-84
2022/12/10 02:06:54;;;;;;;101.32;31.80;;;;;;;;;;5113924;28;20027;-83
2022/12/10 02:09:30;;;;;;;87.30;29.92;;;;;;;;;;5095612;28;20027;-84
2022/12/10 02:12:17;;;;;;;100.32;30.83;;;;;;;;;;5095001;28;20034;-82
2022/12/10 02:14:46;;;;;;;83.18;28.42;;;;;;;;;;5099401;27;20046;-83
2022/12/10 02:17:14;;;;;;;85.47;29.50;;;;;;;;;;5134874;27;20437;-83
2022/12/10 02:19:46;;;;;;;88.25;30.00;;;;;;;;;;5116645;27;20046;-83
2022/12/10 02:22:12;;;;;;;;;;;;;;;;;;5116821;27;20460;-83
2022/12/10 02:24:40;;;;;;;85.00;30.00;;;;;;;;;;5116378;27;19956;-84
2022/12/10 02:27:09;;;;;;;90.53;28.92;;;;;;;;;;5116622;27;20023;-84
2022/12/10 02:29:36;;;;;;;85.68;29.10;;;;;;;;;;5116612;27;20786;-83
2022/12/10 02:32:06;;;;;;;90.55;31.83;;;;;;;;;;5099722;27;20058;-83
2022/12/10 02:34:35;;;;;;;88.57;28.25;;;;;;;;;;5116621;27;20023;-83
2022/12/10 02:37:04;;;;;;;87.50;30.27;;;;;;;;;;5116097;27;20027;-83
2022/12/10 02:39:32;;;;;;;97.18;32.42;;;;;;;;;;5116636;27;20034;-83
2022/12/10 02:42:00;;;;;;;95.50;30.48;;;;;;;;;;5115406;27;20027;-83
2022/12/10 02:44:28;;;;;;;92.97;29.90;;;;;;;;;;5116333;27;20072;-84
2022/12/10 02:46:56;;;;;;;94.05;31.90;;;;;;;;;;5116308;27;20035;-83
2022/12/10 02:49:22;;;;;;;94.40;31.88;;;;;;;;;;5116384;27;20457;-83
2022/12/10 02:51:48;;;;;;;103.50;32.95;;;;;;;;;;5116079;27;20030;-83
2022/12/10 02:54:33;;;;;;;113.55;34.92;;;;;;;;;;5134034;27;20072;-83
2022/12/10 02:57:01;;;;;;;128.35;35.40;;;;;;;;;;5134278;27;20129;-83
2022/12/10 02:59:46;;;;;;;139.25;37.78;;;;;;;;;;5108366;28;20020;-83
2022/12/10 03:02:21;;;;;;;156.23;39.10;;;;;;;;;;5113848;28;21210;-84
2022/12/10 03:04:52;;;;;;;149.77;40.40;;;;;;;;;;5094505;28;20024;-83
2022/12/10 03:07:21;;;;;;;157.40;39.38;;;;;;;;;;5095019;28;20030;-82
2022/12/10 03:10:01;;;;;;;159.10;41.60;;;;;;;;;;5113965;28;20024;-83
2022/12/10 03:12:45;;;;;;;158.23;39.85;;;;;;;;;;5095450;28;20053;-84
2022/12/10 03:15:12;;;;;;;163.55;40.58;;;;;;;;;;5095405;28;20026;-84
2022/12/10 03:17:39;;;;;;;173.43;41.20;;;;;;;;;;5113672;28;20024;-83
2022/12/10 03:20:08;;;;;;;159.30;40.20;;;;;;;;;;5113520;28;20027;-83
2022/12/10 03:22:34;;;;;;;154.23;38.58;;;;;;;;;;5113413;28;20099;-83
2022/12/10 03:25:01;;;;;;;173.55;42.33;;;;;;;;;;5095130;28;20032;-84
2022/12/10 03:27:28;;;;;;;185.98;43.58;;;;;;;;;;5095138;28;20027;-84
2022/12/10 03:29:57;;;;;;;186.50;43.30;;;;;;;;;;5113458;28;20480;-83
2022/12/10 03:32:25;;;;;;;198.77;41.92;;;;;;;;;;5113339;28;20425;-83
2022/12/10 03:34:52;;;;;;;195.98;43.38;;;;;;;;;;5108868;27;20027;-84
2022/12/10 03:37:19;;;;;;;240.77;42.50;;;;;;;;;;5111847;28;20380;-82
2022/12/10 03:39:45;;;;;;;230.82;41.38;;;;;;;;;;5094977;28;20406;-83
2022/12/10 03:42:11;;;;;;;315.30;44.25;;;;;;;;;;5110636;27;20541;-83
2022/12/10 03:44:40;;;;;;;416.80;48.92;;;;;;;;;;5115668;27;20034;-89
2022/12/10 03:47:08;;;;;;;453.08;49.58;;;;;;;;;;5116108;27;20042;-90
2022/12/10 03:49:34;;;;;;;503.20;46.97;;;;;;;;;;5116626;27;20027;-89
2022/12/10 03:52:00;;;;;;;445.70;48.13;;;;;;;;;;5115919;27;20027;-90
2022/12/10 03:54:26;;;;;;;401.52;46.13;;;;;;;;;;5115176;27;20043;-89
2022/12/10 03:56:52;;;;;;;537.95;49.00;;;;;;;;;;5132957;27;20122;-90
2022/12/10 03:59:18;;;;;;;290.05;44.40;;;;;;;;;;5118584;27;20027;-89
2022/12/10 04:01:44;;;;;;;564.65;49.75;;;;;;;;;;5115643;27;20031;-90
2022/12/10 04:04:10;;;;;;;611.03;52.97;;;;;;;;;;5115320;28;20544;-91
2022/12/10 04:06:38;;;;;;;446.88;45.60;;;;;;;;;;5098950;27;20035;-90
2022/12/10 04:09:04;;;;;;;234.77;40.30;;;;;;;;;;5134057;27;20023;-89
2022/12/10 04:11:30;;;;;;;211.43;38.88;;;;;;;;;;5134015;27;20027;-90
2022/12/10 04:16:41;;;;;;;350.13;44.25;;;;;;;;;;5119238;27;20118;-89
2022/12/10 04:19:09;;;;;;;444.55;47.15;;;;;;;;;;5115675;27;20027;-89
2022/12/10 04:27:12;;;;;;;215.20;40.83;;;;;;;;;;5114035;28;20031;-90
2022/12/10 04:29:38;;;;;;;528.40;49.90;;;;;;;;;;5095159;28;20092;-90
2022/12/10 04:32:04;;;;;;;205.30;41.50;;;;;;;;;;5113458;28;20072;-89
2022/12/10 04:34:31;;;;;;;269.90;43.97;;;;;;;;;;5113350;28;20457;-90
2022/12/10 04:36:58;;;;;;;325.83;45.13;;;;;;;;;;5095840;28;20034;-90
2022/12/10 04:39:24;;;;;;;425.02;49.95;;;;;;;;;;5113104;28;20023;-89
2022/12/10 04:41:50;;;;;;;366.25;49.10;;;;;;;;;;5109266;28;20916;-89
2022/12/10 04:44:16;;;;;;;400.63;49.50;;;;;;;;;;5099241;28;20050;-89
2022/12/10 04:46:42;;;;;;;259.98;44.40;;;;;;;;;;5095221;28;20024;-89
2022/12/10 04:49:09;;;;;;;524.15;53.67;;;;;;;;;;5112471;28;20103;-90
2022/12/10 04:51:35;;;;;;;738.90;54.03;;;;;;;;;;5094871;28;20028;-90
2022/12/10 04:54:01;;;;;;;577.22;53.05;;;;;;;;;;5112463;28;20015;-90
2022/12/10 04:56:27;;;;;;;490.55;53.10;;;;;;;;;;5094754;28;20066;-90
2022/12/10 04:58:55;;;;;;;224.48;44.10;;;;;;;;;;5113684;28;20022;-90
2022/12/10 05:01:21;;;;;;;242.13;43.67;;;;;;;;;;5095084;28;20023;-89
2022/12/10 05:03:47;;;;;;;416.63;51.65;;;;;;;;;;5095291;28;20024;-90
2022/12/10 05:06:14;;;;;;;208.43;42.25;;;;;;;;;;5095401;28;20032;-90
2022/12/10 05:08:41;;;;;;;410.42;47.65;;;;;;;;;;5095325;28;20469;-89
2022/12/10 05:11:08;;;;;;;590.65;54.08;;;;;;;;;;5095274;28;20126;-90
2022/12/10 05:13:34;;;;;;;402.13;44.22;;;;;;;;;;5094878;28;20030;-90
2022/12/10 05:16:04;;;;;;;449.08;43.47;;;;;;;;;;5114574;28;20031;-90
2022/12/10 05:18:30;;;;;;;362.13;42.83;;;;;;;;;;5117720;28;20024;-90
2022/12/10 05:21:00;;;;;;;235.90;40.67;;;;;;;;;;5117305;28;20077;-89
2022/12/10 05:23:28;;;;;;;240.95;39.00;;;;;;;;;;5117379;28;20354;-90
2022/12/10 05:26:05;;;;;;;364.77;42.10;;;;;;;;;;5098976;28;20031;-90
2022/12/10 05:28:32;;;;;;;193.40;38.50;;;;;;;;;;5117728;28;20453;-90
2022/12/10 05:30:59;;;;;;;317.15;43.88;;;;;;;;;;5098919;28;20480;-90
2022/12/10 05:33:25;;;;;;;413.90;44.17;;;;;;;;;;5099121;28;20095;-89
2022/12/10 05:35:55;;;;;;;414.27;45.88;;;;;;;;;;5102384;28;20389;-90
2022/12/10 05:38:21;;;;;;;542.67;47.80;;;;;;;;;;5098850;28;20016;-90
2022/12/10 05:40:47;;;;;;;376.48;46.22;;;;;;;;;;5103520;27;20128;-91
2022/12/10 05:43:13;;;;;;;251.63;40.47;;;;;;;;;;5119219;27;20405;-90
2022/12/10 05:45:40;;;;;;;304.52;37.95;;;;;;;;;;5102021;27;20438;-90
2022/12/10 05:48:06;;;;;;;194.40;36.83;;;;;;;;;;5119197;27;20048;-88
2022/12/10 05:50:33;;;;;;;395.20;43.90;;;;;;;;;;5118736;27;20115;-90
2022/12/10 05:52:59;;;;;;;286.92;42.92;;;;;;;;;;5137335;27;20126;-90
2022/12/10 05:55:26;;;;;;;398.83;43.17;;;;;;;;;;5118735;27;20047;-90
2022/12/10 05:57:53;;;;;;;298.58;44.42;;;;;;;;;;5118694;27;20031;-90
2022/12/10 06:00:21;;;;;;;424.48;45.05;;;;;;;;;;5118694;27;20035;-89
2022/12/10 06:02:47;;;;;;;188.55;37.70;;;;;;;;;;5119075;27;20027;-91
2022/12/10 06:05:13;;;;;;;294.40;41.22;;;;;;;;;;5118943;27;20023;-90
2022/12/10 06:07:39;;;;;;;603.38;49.03;;;;;;;;;;5101305;27;20480;-90
2022/12/10 06:10:05;;;;;;;483.42;44.75;;;;;;;;;;5101618;27;20487;-90
2022/12/10 06:12:31;;;;;;;293.08;42.05;;;;;;;;;;5101395;27;20413;-89
2022/12/10 06:14:57;;;;;;;233.05;41.28;;;;;;;;;;5118738;27;20031;-91
2022/12/10 06:17:23;;;;;;;386.33;47.85;;;;;;;;;;5101322;27;20028;-91
2022/12/10 06:19:49;;;;;;;252.43;43.13;;;;;;;;;;5101794;27;20038;-90
2022/12/10 06:22:15;;;;;;;346.88;46.17;;;;;;;;;;5101826;27;20028;-90
2022/12/10 06:24:41;;;;;;;272.35;44.20;;;;;;;;;;5115540;27;20055;-90
2022/12/10 06:27:07;;;;;;;606.42;58.00;;;;;;;;;;5080657;28;20066;-90
2022/12/10 06:29:33;;;;;;;484.38;50.33;;;;;;;;;;5115780;28;20020;-90
2022/12/10 06:31:59;;;;;;;299.77;43.08;;;;;;;;;;5081406;28;20054;-90
2022/12/10 06:34:25;;;;;;;454.95;44.47;;;;;;;;;;5081236;28;20440;-90
2022/12/10 06:36:51;;;;;;;423.83;43.45;;;;;;;;;;5096486;27;20456;-90
2022/12/10 06:39:17;;;;;;;520.88;45.72;;;;;;;;;;5101324;27;20388;-90
2022/12/10 06:41:45;;;;;;;562.50;48.50;;;;;;;;;;5100538;27;20117;-90
2022/12/10 06:44:11;;;;;;;440.75;46.17;;;;;;;;;;5101223;27;20116;-90
2022/12/10 06:46:37;;;;;;;471.90;47.10;;;;;;;;;;5117713;27;20050;-90
2022/12/10 06:49:04;;;;;;;388.38;45.65;;;;;;;;;;5100860;27;20062;-91
2022/12/10 06:51:30;;;;;;;457.88;46.05;;;;;;;;;;5135961;27;20080;-91
2022/12/10 06:53:56;;;;;;;413.10;46.08;;;;;;;;;;5100627;27;20023;-91
2022/12/10 06:56:22;;;;;;;399.40;46.40;;;;;;;;;;5101327;27;20039;-91
2022/12/10 06:58:48;;;;;;;458.08;47.55;;;;;;;;;;5117823;27;20019;-89
2022/12/10 07:01:19;;;;;;;419.35;47.38;;;;;;;;;;5100349;27;20027;-92
2022/12/10 07:03:47;;;;;;;429.45;46.35;;;;;;;;;;5117545;27;20031;-93
2022/12/10 07:06:13;;;;;;;420.40;45.17;;;;;;;;;;5117189;27;20023;-90
2022/12/10 07:08:40;;;;;;;310.55;41.53;;;;;;;;;;5100346;27;20027;-90
2022/12/10 07:11:08;;;;;;;487.95;49.42;;;;;;;;;;5135396;27;20507;-90
2022/12/10 07:13:34;;;;;;;301.15;40.95;;;;;;;;;;5117012;27;20030;-90
2022/12/10 07:16:00;;;;;;;370.23;43.03;;;;;;;;;;5117044;27;20024;-89
2022/12/10 07:18:27;;;;;;;410.25;44.35;;;;;;;;;;5116769;27;20031;-89
2022/12/10 07:20:53;;;;;;;347.45;42.50;;;;;;;;;;5116864;27;20494;-89
2022/12/10 07:23:19;;;;;;;413.52;46.65;;;;;;;;;;5134911;27;20021;-89
2022/12/10 07:25:46;;;;;;;374.52;44.60;;;;;;;;;;5087349;28;20027;-89
2022/12/10 07:28:12;;;;;;;340.52;44.00;;;;;;;;;;5095858;28;20042;-90
2022/12/10 07:30:38;;;;;;;332.83;42.65;;;;;;;;;;5096031;28;20019;-89
2022/12/10 07:33:04;;;;;;;395.73;44.83;;;;;;;;;;5096142;28;20116;-91
2022/12/10 07:35:30;;;;;;;392.05;43.35;;;;;;;;;;5100497;27;20038;-89
2022/12/10 07:37:56;;;;;;;379.38;44.25;;;;;;;;;;5116473;27;20027;-89
2022/12/10 07:40:22;;;;;;;428.10;47.28;;;;;;;;;;5098630;27;20027;-90
2022/12/10 07:42:48;;;;;;;253.40;39.38;;;;;;;;;;5105634;27;20099;-90
2022/12/10 07:45:14;;;;;;;339.17;41.25;;;;;;;;;;5116475;27;20023;-89
2022/12/10 07:47:40;;;;;;;316.55;40.55;;;;;;;;;;5099658;27;20038;-89
2022/12/10 07:50:07;;;;;;;300.45;40.50;;;;;;;;;;5116482;27;20027;-90
2022/12/10 07:52:33;;;;;;;254.38;38.50;;;;;;;;;;5134862;27;20023;-90
2022/12/10 07:54:59;;;;;;;257.13;38.50;;;;;;;;;;5099245;27;20088;-90
2022/12/10 07:57:25;;;;;;;227.15;39.38;;;;;;;;;;5095714;28;20113;-89
2022/12/10 07:59:51;;;;;;;201.50;37.53;;;;;;;;;;5100105;28;20020;-90
2022/12/10 08:02:17;;;;;;;347.13;42.50;;;;;;;;;;5092424;28;20032;-90
2022/12/10 08:04:43;;;;;;;224.07;39.20;;;;;;;;;;5092770;28;20028;-90
2022/12/10 08:07:09;;;;;;;342.83;41.65;;;;;;;;;;5094004;28;20058;-89
2022/12/10 08:09:35;;;;;;;333.95;40.33;;;;;;;;;;5093176;28;20032;-90
2022/12/10 08:12:01;;;;;;;299.55;38.58;;;;;;;;;;5092539;28;20047;-89
2022/12/10 08:14:27;;;;;;;172.85;34.08;;;;;;;;;;5075198;28;20035;-90
2022/12/10 08:16:53;;;;;;;170.18;35.85;;;;;;;;;;5075189;28;20537;-89
2022/12/10 08:19:19;;;;;;;321.80;41.15;;;;;;;;;;5075002;28;20043;-90
2022/12/10 08:21:45;;;;;;;184.60;38.58;;;;;;;;;;5091905;28;20102;-89
2022/12/10 08:24:11;;;;;;;369.92;43.75;;;;;;;;;;5075002;28;20043;-89
2022/12/10 08:26:38;;;;;;;269.67;40.80;;;;;;;;;;5086952;28;20035;-89
2022/12/10 08:29:04;;;;;;;333.60;42.17;;;;;;;;;;5107842;28;20074;-89
2022/12/10 08:31:31;;;;;;;240.63;40.80;;;;;;;;;;5091440;28;20058;-89
2022/12/10 08:33:57;;;;;;;252.88;41.28;;;;;;;;;;5106508;28;20036;-89
2022/12/10 08:36:23;;;;;;;187.98;38.75;;;;;;;;;;5105477;28;20016;-89
2022/12/10 08:38:49;;;;;;;235.02;42.42;;;;;;;;;;5113040;28;20053;-89
2022/12/10 08:41:22;;;;;;;251.38;42.78;;;;;;;;;;5109903;28;20492;-88
2022/12/10 08:43:48;;;;;;;330.98;47.53;;;;;;;;;;5091374;28;20024;-88
2022/12/10 08:46:15;;;;;;;240.23;42.33;;;;;;;;;;5095301;28;20049;-90
2022/12/10 08:48:41;;;;;;;450.10;49.22;;;;;;;;;;5112139;28;20483;-89
2022/12/10 08:51:08;;;;;;;393.05;46.50;;;;;;;;;;5112839;28;20453;-89
2022/12/10 08:53:34;;;;;;;298.25;45.40;;;;;;;;;;5115459;28;20429;-89
2022/12/10 08:56:01;;;;;;;399.05;47.25;;;;;;;;;;5094288;28;20493;-89
2022/12/10 08:58:27;;;;;;;394.27;49.55;;;;;;;;;;5116832;28;20111;-89
2022/12/10 09:00:53;;;;;;;402.38;49.10;;;;;;;;;;5117033;28;20039;-88
2022/12/10 09:03:19;;;;;;;385.20;48.42;;;;;;;;;;5115564;28;20027;-89
2022/12/10 09:05:46;;;;;;;256.65;42.42;;;;;;;;;;5115631;28;20052;-89
2022/12/10 09:08:12;;;;;;;340.00;43.80;;;;;;;;;;5115471;28;20019;-88
2022/12/10 09:10:39;;;;;;;277.85;41.13;;;;;;;;;;5116780;28;20016;-88
2022/12/10 09:13:05;;;;;;;255.95;40.85;;;;;;;;;;5098062;28;20122;-88
2022/12/10 09:15:31;;;;;;;228.00;38.85;;;;;;;;;;5115404;28;20051;-88
2022/12/10 09:17:57;;;;;;;367.45;43.42;;;;;;;;;;5098228;28;20024;-88
2022/12/10 09:20:23;;;;;;;263.02;37.58;;;;;;;;;;5116266;28;20055;-88
2022/12/10 09:22:49;;;;;;;271.73;41.15;;;;;;;;;;5097997;28;20057;-86
2022/12/10 09:25:16;;;;;;;300.63;41.80;;;;;;;;;;5116820;28;20118;-90
2022/12/10 09:27:43;;;;;;;276.33;40.60;;;;;;;;;;5116378;28;20035;-91
2022/12/10 09:30:09;;;;;;;287.27;40.55;;;;;;;;;;5116751;28;20024;-92
2022/12/10 09:32:36;;;;;;;253.05;38.92;;;;;;;;;;5118537;28;20038;-91
2022/12/10 09:35:02;;;;;;;340.52;41.47;;;;;;;;;;5103014;28;20045;-91
2022/12/10 09:37:28;;;;;;;337.02;40.22;;;;;;;;;;5116441;28;20028;-90
2022/12/10 09:39:54;;;;;;;221.98;36.47;;;;;;;;;;5098556;28;20028;-90
2022/12/10 09:42:20;;;;;;;227.95;38.55;;;;;;;;;;5114530;28;20050;-90
2022/12/10 09:45:01;;;;;;;210.82;37.03;;;;;;;;;;5115182;28;20027;-90
2022/12/10 09:47:34;;;;;;;332.92;38.78;;;;;;;;;;5104693;28;20036;-90
2022/12/10 09:50:03;;;;;;;272.17;35.83;;;;;;;;;;5094488;28;20027;-90
2022/12/10 09:52:37;;;;;;;360.88;39.75;;;;;;;;;;5094534;28;20028;-89
2022/12/10 09:55:12;;;;;;;276.63;37.20;;;;;;;;;;5095690;28;20068;-90
2022/12/10 09:57:40;;;;;;;243.52;34.90;;;;;;;;;;5094380;28;20051;-90
2022/12/10 10:00:16;;;;;;;281.63;34.95;;;;;;;;;;5094604;28;20468;-89
2022/12/10 10:02:42;;;;;;;237.50;32.95;;;;;;;;;;5113418;28;20107;-89
2022/12/10 10:05:08;;;;;;;200.48;33.50;;;;;;;;;;5115142;28;20027;-83
2022/12/10 10:07:35;;;;;;;240.68;33.67;;;;;;;;;;5114010;28;20031;-84
2022/12/10 10:10:04;;;;;;;237.07;33.15;;;;;;;;;;5094557;28;20024;-87
2022/12/10 10:12:34;;;;;;;218.63;32.88;;;;;;;;;;5108420;28;20128;-87
2022/12/10 10:15:11;;;;;;;276.90;35.65;;;;;;;;;;5114143;28;20546;-86
2022/12/10 10:17:38;;;;;;;198.27;32.92;;;;;;;;;;5114034;28;20065;-87
2022/12/10 10:20:04;;;;;;;255.38;33.28;;;;;;;;;;5114302;28;20051;-87
2022/12/10 10:22:31;;;;;;;180.95;31.83;;;;;;;;;;5113931;28;20080;-87
2022/12/10 10:24:58;;;;;;;161.18;30.63;;;;;;;;;;5114066;28;20024;-86
2022/12/10 10:27:28;;;;;;;214.32;31.45;;;;;;;;;;5096999;28;20473;-86
2022/12/10 10:29:56;;;;;;;167.35;28.77;;;;;;;;;;5114108;28;20138;-86
2022/12/10 10:32:24;;;;;;;226.95;30.70;;;;;;;;;;5113713;28;20048;-86
2022/12/10 10:34:58;;;;;;;167.23;28.08;;;;;;;;;;5114335;28;20568;-89
2022/12/10 10:37:28;;;;;;;236.57;30.92;;;;;;;;;;5095183;28;20044;-90
2022/12/10 10:39:55;;;;;;;222.40;30.52;;;;;;;;;;5107068;28;20024;-90
2022/12/10 10:42:26;;;;;;;205.75;29.00;;;;;;;;;;5097068;28;20032;-88
2022/12/10 10:44:52;;;;;;;153.88;27.52;;;;;;;;;;5115030;28;20140;-89
2022/12/10 10:47:25;;;;;;;231.35;31.05;;;;;;;;;;5114449;28;20180;-86
2022/12/10 10:49:53;;;;;;;263.00;33.00;;;;;;;;;;5114537;28;20412;-87
2022/12/10 10:52:19;;;;;;;275.60;32.00;;;;;;;;;;5113409;28;20477;-88
2022/12/10 10:54:45;;;;;;;178.65;30.17;;;;;;;;;;5113224;28;20147;-87
2022/12/10 10:57:18;;;;;;;197.77;31.17;;;;;;;;;;5092958;28;20399;-87
2022/12/10 10:59:44;;;;;;;265.42;34.20;;;;;;;;;;5092962;28;20077;-87
2022/12/10 11:02:20;;;;;;;186.48;31.77;;;;;;;;;;5095939;28;20093;-86
2022/12/10 11:04:47;;;;;;;255.60;32.33;;;;;;;;;;5114303;28;20078;-87
2022/12/10 11:07:21;;;;;;;276.92;32.78;;;;;;;;;;5113252;28;20019;-87
2022/12/10 11:09:48;;;;;;;185.60;30.88;;;;;;;;;;5113148;28;20088;-87
2022/12/10 11:12:33;;;;;;;211.05;31.08;;;;;;;;;;5113150;28;20040;-87
2022/12/10 11:14:59;;;;;;;180.27;28.35;;;;;;;;;;5112394;28;20024;-87
2022/12/10 11:17:26;;;;;;;161.18;29.02;;;;;;;;;;5114362;28;20456;-87
2022/12/10 11:19:57;;;;;;;136.65;26.17;;;;;;;;;;5112960;28;20024;-87
2022/12/10 11:22:31;;;;;;;137.63;26.07;;;;;;;;;;5112793;28;20114;-88
2022/12/10 11:24:58;;;;;;;194.57;25.67;;;;;;;;;;5112702;28;20028;-88
2022/12/10 11:27:29;;;;;;;190.38;29.40;;;;;;;;;;5113909;28;20095;-88
2022/12/10 11:30:02;;;;;;;172.27;28.67;;;;;;;;;;5113930;28;20058;-88
2022/12/10 11:32:34;;;;;;;198.77;30.42;;;;;;;;;;5113873;28;20038;-87
2022/12/10 11:35:03;;;;;;;237.95;32.60;;;;;;;;;;5112762;28;20349;-87
2022/12/10 11:37:44;;;;;;;130.45;29.48;;;;;;;;;;5112286;28;20024;-88
2022/12/10 11:40:10;;;;;;;140.70;27.02;;;;;;;;;;5112488;28;20385;-87
2022/12/10 11:42:36;;;;;;;153.50;24.27;;;;;;;;;;5113664;28;20028;-88
2022/12/10 11:45:02;;;;;;;177.90;27.60;;;;;;;;;;5113711;28;20030;-88
2022/12/10 11:47:28;;;;;;;120.53;25.33;;;;;;;;;;5113779;28;20445;-88
2022/12/10 11:50:06;;;;;;;243.32;28.52;;;;;;;;;;5113806;28;20048;-87
2022/12/10 11:52:33;;;;;;;132.05;24.33;;;;;;;;;;5112229;28;20044;-88
2022/12/10 11:55:11;;;;;;;133.57;24.83;;;;;;;;;;5113624;28;20061;-86
2022/12/10 11:57:40;;;;;;;113.15;24.85;;;;;;;;;;5112121;28;20074;-87
2022/12/10 12:00:21;;;;;;;143.48;23.17;;;;;;;;;;5097100;28;20035;-88
2022/12/10 12:03:06;;;;;;;151.10;24.60;;;;;;;;;;5091738;28;20024;-87
2022/12/10 12:05:40;;;;;;;187.07;28.63;;;;;;;;;;5092775;28;20028;-84
2022/12/10 12:08:13;;;;;;;139.23;24.15;;;;;;;;;;5096061;28;20019;-88
2022/12/10 12:10:55;;;;;;;106.55;22.70;;;;;;;;;;5112264;28;20024;-88
2022/12/10 12:13:26;;;;;;;125.57;25.70;;;;;;;;;;5112504;28;20028;-89
2022/12/10 12:15:55;;;;;;;132.18;25.27;;;;;;;;;;5111622;28;20255;-84
2022/12/10 12:18:34;;;;;;;205.73;28.77;;;;;;;;;;5113991;28;20034;-91
2022/12/10 12:21:02;;;;;;;125.43;26.05;;;;;;;;;;5106509;28;20032;-91
2022/12/10 12:23:41;;;;;;;152.98;28.67;;;;;;;;;;5093968;28;20102;-91
2022/12/10 12:26:11;;;;;;;132.73;29.05;;;;;;;;;;5091915;28;20024;-91
2022/12/10 12:28:41;;;;;;;176.40;27.00;;;;;;;;;;5112586;28;20481;-91
2022/12/10 12:31:12;;;;;;;131.20;27.80;;;;;;;;;;5112470;28;20065;-91
2022/12/10 12:33:56;;;;;;;134.85;26.80;;;;;;;;;;5111920;28;20026;-88
2022/12/10 12:36:31;;;;;;;148.88;26.30;;;;;;;;;;5112064;28;20043;-88
2022/12/10 12:39:06;;;;;;;126.82;24.73;;;;;;;;;;5112099;28;20023;-88
2022/12/10 12:41:48;;;;;;;176.98;27.17;;;;;;;;;;5112230;28;20093;-88
2022/12/10 12:44:32;;;;;;;132.48;27.08;;;;;;;;;;5112126;28;20039;-88
2022/12/10 12:47:02;;;;;;;123.03;24.50;;;;;;;;;;5113670;28;20024;-89
2022/12/10 12:49:28;;;;;;;143.07;25.95;;;;;;;;;;5112912;28;20054;-88
2022/12/10 12:52:13;;;;;;;136.93;25.80;;;;;;;;;;5112112;28;20031;-89
2022/12/10 12:54:39;;;;;;;130.80;25.08;;;;;;;;;;5112367;28;20377;-89
2022/12/10 12:57:11;;;;;;;153.82;25.00;;;;;;;;;;5095138;28;20074;-89
2022/12/10 12:59:37;;;;;;;;;;;;;;;;;;5112802;28;20466;-89
2022/12/10 13:02:09;;;;;;;126.63;22.88;;;;;;;;;;5113269;28;19930;-89
2022/12/10 13:04:35;;;;;;;156.70;24.85;;;;;;;;;;5113709;28;20058;-89
2022/12/10 13:07:14;;;;;;;209.00;24.33;;;;;;;;;;5112037;28;20036;-89
2022/12/10 13:09:44;;;;;;;151.02;25.23;;;;;;;;;;5111751;28;20399;-88
2022/12/10 13:12:16;;;;;;;102.80;22.85;;;;;;;;;;5111652;28;20035;-88
2022/12/10 13:14:50;;;;;;;125.43;25.27;;;;;;;;;;5111694;28;20024;-87
2022/12/10 13:17:35;;;;;;;115.55;25.08;;;;;;;;;;5111349;28;20031;-87
2022/12/10 13:20:20;;;;;;;121.50;26.10;;;;;;;;;;5112742;28;20035;-88
2022/12/10 13:22:55;;;;;;;157.63;24.13;;;;;;;;;;5111059;28;20072;-87
2022/12/10 13:25:37;;;;;;;158.82;28.52;;;;;;;;;;5110670;28;20111;-80
2022/12/10 13:28:17;;;;;;;108.25;25.10;;;;;;;;;;5110910;28;20496;-79
2022/12/10 13:30:43;;;;;;;103.28;24.25;;;;;;;;;;5111860;28;20028;-84
2022/12/10 13:33:17;;;;;;;87.57;23.00;;;;;;;;;;5111765;28;20043;-82
2022/12/10 13:35:51;;;;;;;194.68;26.88;;;;;;;;;;5110263;28;20047;-81
2022/12/10 13:38:21;;;;;;;110.15;24.15;;;;;;;;;;5114655;28;20031;-87
2022/12/10 13:46:30;;;;;;;166.80;27.02;;;;;;;;;;5105398;28;20404;-89
2022/12/10 13:49:01;;;;;;;98.13;23.60;;;;;;;;;;5114847;28;20040;-89
2022/12/10 13:51:40;;;;;;;165.77;25.98;;;;;;;;;;5116135;28;20062;-89
2022/12/10 13:54:06;;;;;;;104.28;24.98;;;;;;;;;;5115245;28;20030;-89
2022/12/10 13:56:40;;;;;;;171.85;27.50;;;;;;;;;;5119472;27;20077;-90
2022/12/10 13:59:06;;;;;;;167.70;27.02;;;;;;;;;;5135995;27;20397;-88
2022/12/10 14:01:39;;;;;;;184.38;26.52;;;;;;;;;;5118123;27;20060;-89
2022/12/10 14:04:05;;;;;;;201.93;26.63;;;;;;;;;;5118422;27;20469;-91
2022/12/10 14:06:39;;;;;;;272.58;29.08;;;;;;;;;;5136145;27;20034;-87
2022/12/10 14:09:05;;;;;;;219.90;30.00;;;;;;;;;;5135908;27;20483;-87
2022/12/10 14:11:32;;;;;;;100.28;25.10;;;;;;;;;;5117418;27;20039;-86
2022/12/10 14:14:00;;;;;;;132.30;27.63;;;;;;;;;;5135940;27;20098;-87
2022/12/10 14:16:28;;;;;;;159.55;27.35;;;;;;;;;;5117149;27;20015;-86
2022/12/10 14:18:57;;;;;;;170.05;26.77;;;;;;;;;;5135971;27;20496;-87
2022/12/10 14:21:24;;;;;;;113.15;25.60;;;;;;;;;;5117463;27;20023;-87
2022/12/10 14:23:50;;;;;;;184.65;28.33;;;;;;;;;;5100492;27;20458;-86
2022/12/10 14:26:19;;;;;;;117.00;26.58;;;;;;;;;;5100790;28;20477;-87
2022/12/10 14:28:46;;;;;;;122.03;26.95;;;;;;;;;;5096788;28;20032;-86
2022/12/10 14:31:17;;;;;;;136.95;28.48;;;;;;;;;;5114958;28;20027;-87